Time;durP1;ratioP1;P1;durP2;ratioP2;P2;SDS_P1;SDS_P2;PMS_P1;PMS_P2;Temp;Humidity;BMP_temperature;BMP_pressure;BME280_temperature;BME280_humidity;BME280_pressure;Samples;Min_cycle;Max_cycle;Signal;HPM_P1;HPM_P2
2024/02/19 00:06:34;;;;;;;;;;;9.40;99.90;;;;;;6642175;88;20071;-79
2024/02/19 00:16:35;;;;;;;;;;;9.30;99.90;;;;;;6639526;88;20074;-78
2024/02/19 00:26:36;;;;;;;;;;;9.40;99.90;;;;;;6645333;88;20109;-76
2024/02/19 00:46:40;;;;;;;;;;;9.10;99.90;;;;;;6723909;88;20204;-78
2024/02/19 00:56:40;;;;;;;;;;;9.00;99.90;;;;;;6724045;88;20136;-78
2024/02/19 01:06:41;;;;;;;;;;;8.90;99.90;;;;;;6723227;88;20072;-78
2024/02/19 01:16:41;;;;;;;;;;;8.80;99.90;;;;;;6729295;88;20055;-79
2024/02/19 01:26:42;;;;;;;;;;;8.90;99.90;;;;;;6734498;88;20058;-80
2024/02/19 01:36:44;;;;;;;;;;;8.80;99.90;;;;;;6732754;88;20055;-79
2024/02/19 01:46:45;;;;;;;;;;;8.80;99.90;;;;;;6740025;88;20066;-79
2024/02/19 01:56:46;;;;;;;;;;;8.80;99.90;;;;;;6743973;88;20529;-79
2024/02/19 02:06:46;;;;;;;;;;;8.80;99.90;;;;;;6713065;88;20076;-79
2024/02/19 02:16:47;;;;;;;;;;;8.80;99.90;;;;;;6664964;89;20182;-79
2024/02/19 02:26:47;;;;;;;;;;;8.90;99.90;;;;;;6655035;89;20689;-79
2024/02/19 02:36:48;;;;;;;;;;;8.90;99.90;;;;;;6668651;88;20078;-79
2024/02/19 02:46:49;;;;;;;;;;;8.80;99.90;;;;;;6654247;89;20060;-80
2024/02/19 02:56:49;;;;;;;;;;;8.70;99.90;;;;;;6682425;88;20558;-79
2024/02/19 03:06:50;;;;;;;;;;;8.60;99.90;;;;;;6635865;89;20089;-79
2024/02/19 03:16:50;;;;;;;;;;;8.60;99.90;;;;;;6650831;88;20070;-79
2024/02/19 03:26:50;;;;;;;;;;;8.50;99.90;;;;;;6704384;88;20082;-79
2024/02/19 03:36:51;;;;;;;;;;;8.50;99.90;;;;;;6681197;88;20115;-79
2024/02/19 03:46:52;;;;;;;;;;;8.50;99.90;;;;;;6679661;88;20057;-79
2024/02/19 03:56:52;;;;;;;;;;;8.50;99.90;;;;;;6736394;88;20558;-79
2024/02/19 04:06:53;;;;;;;;;;;8.50;99.90;;;;;;6668974;88;20078;-79
2024/02/19 04:16:54;;;;;;;;;;;8.40;99.90;;;;;;6665941;89;20053;-79
2024/02/19 04:26:54;;;;;;;;;;;8.40;99.90;;;;;;6668958;88;20151;-79
2024/02/19 04:36:55;;;;;;;;;;;8.40;99.90;;;;;;6695401;88;20053;-79
2024/02/19 04:46:56;;;;;;;;;;;8.40;99.90;;;;;;6661464;89;20054;-79
2024/02/19 04:56:57;;;;;;;;;;;8.40;99.90;;;;;;6686556;88;20050;-79
2024/02/19 05:06:57;;;;;;;;;;;8.40;99.90;;;;;;6683305;88;20076;-79
2024/02/19 05:16:58;;;;;;;;;;;8.50;99.90;;;;;;6716275;88;20522;-78
2024/02/19 05:26:58;;;;;;;;;;;8.50;99.90;;;;;;6668776;89;20066;-79
2024/02/19 05:36:59;;;;;;;;;;;8.50;99.90;;;;;;6655849;89;20128;-78
2024/02/19 05:46:59;;;;;;;;;;;8.40;99.90;;;;;;6663779;88;20160;-78
2024/02/19 05:57:00;;;;;;;;;;;8.50;99.90;;;;;;6691387;88;20103;-79
2024/02/19 06:07:01;;;;;;;;;;;8.50;99.90;;;;;;6665261;88;20627;-79
2024/02/19 06:17:02;;;;;;;;;;;8.50;99.90;;;;;;6693305;77;20077;-78
2024/02/19 06:27:02;;;;;;;;;;;8.70;99.90;;;;;;6668295;88;20066;-78
2024/02/19 06:37:03;;;;;;;;;;;8.70;99.90;;;;;;6631999;77;20129;-79
2024/02/19 06:47:03;;;;;;;;;;;8.80;99.90;;;;;;6654675;89;20093;-78
2024/02/19 06:57:04;;;;;;;;;;;8.80;99.90;;;;;;6645330;89;20097;-78
2024/02/19 07:07:08;;;;;;;;;;;8.90;99.90;;;;;;6647750;89;20066;-78
2024/02/19 07:17:09;;;;;;;;;;;9.00;99.90;;;;;;6649362;89;20074;-79
2024/02/19 07:27:10;;;;;;;;;;;9.00;99.90;;;;;;6640358;89;20076;-80
2024/02/19 07:37:10;;;;;;;;;;;9.10;99.90;;;;;;6646397;89;20070;-81
2024/02/19 07:47:11;;;;;;;;;;;9.10;99.90;;;;;;6648250;89;20059;-81
2024/02/19 07:57:11;;;;;;;;;;;9.10;99.90;;;;;;6647900;89;20077;-81
2024/02/19 08:07:12;;;;;;;;;;;9.20;99.90;;;;;;6646896;89;20078;-82
2024/02/19 08:17:12;;;;;;;;;;;9.30;99.90;;;;;;6646551;89;20110;-80
2024/02/19 08:27:13;;;;;;;;;;;9.30;99.90;;;;;;6646178;89;20061;-79
2024/02/19 08:37:17;;;;;;;;;;;9.40;99.90;;;;;;6633894;89;20043;-80
2024/02/19 08:47:18;;;;;;;;;;;9.70;99.90;;;;;;6633074;89;20054;-80
2024/02/19 08:57:18;;;;;;;;;;;10.00;99.90;;;;;;6633634;89;20097;-79
2024/02/19 09:07:18;;;;;;;;;;;10.30;99.90;;;;;;6631437;89;20090;-79
2024/02/19 09:17:19;;;;;;;;;;;10.40;99.90;;;;;;6630939;89;20062;-80
2024/02/19 09:27:19;;;;;;;;;;;10.60;99.90;;;;;;6634036;89;20184;-80
2024/02/19 09:37:24;;;;;;;;;;;10.70;99.90;;;;;;6635113;89;20101;-81
2024/02/19 09:47:26;;;;;;;;;;;10.80;99.90;;;;;;6631414;89;20531;-79
2024/02/19 09:57:28;;;;;;;;;;;10.90;99.90;;;;;;6628209;89;20084;-80
2024/02/19 10:07:30;;;;;;;;;;;11.00;99.90;;;;;;6630189;89;20186;-80
2024/02/19 10:17:31;;;;;;;;;;;11.20;99.90;;;;;;6627886;89;20067;-81
2024/02/19 10:27:33;;;;;;;;;;;11.50;99.90;;;;;;6630702;89;20078;-81
2024/02/19 10:37:35;;;;;;;;;;;12.10;99.90;;;;;;6630890;89;20073;-82
2024/02/19 10:47:38;;;;;;;;;;;12.70;99.90;;;;;;6638464;89;20057;-82
2024/02/19 10:57:47;;;;;;;;;;;12.70;99.90;;;;;;6638930;89;20061;-82
2024/02/19 11:07:48;;;;;;;;;;;12.50;99.90;;;;;;6639117;89;20051;-80
2024/02/19 11:17:48;;;;;;;;;;;12.60;99.90;;;;;;6638449;89;20531;-81
2024/02/19 11:27:49;;;;;;;;;;;12.60;99.90;;;;;;6631886;89;20082;-82
2024/02/19 11:37:49;;;;;;;;;;;12.70;99.90;;;;;;6632161;89;20209;-81
2024/02/19 11:47:50;;;;;;;;;;;12.90;99.90;;;;;;6630407;89;20062;-81
2024/02/19 11:57:52;;;;;;;;;;;13.00;99.90;;;;;;6630767;89;20470;-81
2024/02/19 12:07:53;;;;;;;;;;;12.80;99.90;;;;;;6631153;89;20081;-80
2024/02/19 12:17:53;;;;;;;;;;;12.60;99.90;;;;;;6630484;89;20675;-81
2024/02/19 12:27:54;;;;;;;;;;;12.50;99.90;;;;;;6632074;89;20066;-82
2024/02/19 12:37:54;;;;;;;;;;;12.50;99.90;;;;;;6630389;89;20078;-80
2024/02/19 12:47:55;;;;;;;;;;;12.50;99.90;;;;;;6632523;89;20065;-80
2024/02/19 12:57:56;;;;;;;;;;;12.50;99.90;;;;;;6634814;89;20050;-80
2024/02/19 13:07:56;;;;;;;;;;;12.40;99.90;;;;;;6636003;89;20062;-80
2024/02/19 13:17:57;;;;;;;;;;;12.20;99.90;;;;;;6647738;88;20588;-80
2024/02/19 13:27:58;;;;;;;;;;;12.40;99.90;;;;;;6742059;88;20076;-80
2024/02/19 13:38:02;;;;;;;;;;;12.10;99.90;;;;;;6741171;88;20070;-79
2024/02/19 13:48:03;;;;;;;;;;;11.90;99.90;;;;;;6741031;88;20114;-80
2024/02/19 13:58:03;;;;;;;;;;;11.80;99.90;;;;;;6741858;88;20066;-80
2024/02/19 14:08:04;;;;;;;;;;;11.80;99.90;;;;;;6741756;88;20111;-78
2024/02/19 14:18:05;;;;;;;;;;;11.80;99.90;;;;;;6744831;88;20063;-81
2024/02/19 14:28:08;;;;;;;;;;;11.70;99.90;;;;;;6737591;88;20083;-81
2024/02/19 14:38:09;;;;;;;;;;;11.70;99.90;;;;;;6741100;88;20100;-81
2024/02/19 14:48:10;;;;;;;;;;;11.80;99.90;;;;;;6740967;88;20111;-80
2024/02/19 14:58:10;;;;;;;;;;;11.80;99.90;;;;;;6741827;88;20558;-80
2024/02/19 15:08:15;;;;;;;;;;;11.70;99.90;;;;;;6742401;88;20097;-80
2024/02/19 15:18:16;;;;;;;;;;;11.70;99.90;;;;;;6742166;88;20047;-78
2024/02/19 15:28:17;;;;;;;;;;;11.60;99.90;;;;;;6742320;88;20590;-80
2024/02/19 15:38:18;;;;;;;;;;;11.60;99.90;;;;;;6741435;88;20066;-80
2024/02/19 15:48:18;;;;;;;;;;;11.50;99.90;;;;;;6741892;88;20076;-79
2024/02/19 15:58:22;;;;;;;;;;;11.30;99.90;;;;;;6741722;88;20035;-80
2024/02/19 16:08:32;;;;;;;;;;;10.80;99.90;;;;;;6714702;88;20087;-80
2024/02/19 16:18:33;;;;;;;;;;;10.70;99.90;;;;;;6644382;89;20451;-79
2024/02/19 16:28:33;;;;;;;;;;;10.80;99.90;;;;;;6632399;89;20051;-79
2024/02/19 16:38:37;;;;;;;;;;;10.70;99.90;;;;;;6630008;89;20078;-79
2024/02/19 16:48:41;;;;;;;;;;;10.60;99.90;;;;;;6629853;89;20561;-79
2024/02/19 16:58:41;;;;;;;;;;;10.50;99.90;;;;;;6631357;89;20061;-80
2024/02/19 17:08:44;;;;;;;;;;;10.40;99.90;;;;;;6632866;89;20067;-79
2024/02/19 17:18:44;;;;;;;;;;;10.40;99.90;;;;;;6632505;89;20067;-78
2024/02/19 17:28:45;;;;;;;;;;;10.30;99.90;;;;;;6633799;89;20697;-79
2024/02/19 17:38:45;;;;;;;;;;;10.10;99.90;;;;;;6633831;89;20058;-80
2024/02/19 17:48:46;;;;;;;;;;;10.00;99.90;;;;;;6635918;89;20066;-78
2024/02/19 17:58:46;;;;;;;;;;;9.90;99.90;;;;;;6663112;88;20076;-79
2024/02/19 18:08:50;;;;;;;;;;;9.70;99.90;;;;;;6661880;89;20109;-80
2024/02/19 18:18:51;;;;;;;;;;;9.60;99.90;;;;;;6666581;88;20634;-79
2024/02/19 18:28:53;;;;;;;;;;;9.60;99.90;;;;;;6675370;89;20139;-80
2024/02/19 18:38:54;;;;;;;;;;;9.60;99.90;;;;;;6688326;77;20056;-76
2024/02/19 18:48:57;;;;;;;;;;;9.60;99.90;;;;;;6733772;88;20193;-77
2024/02/19 18:58:58;;;;;;;;;;;9.60;99.90;;;;;;6707306;88;20094;-78
2024/02/19 19:09:05;;;;;;;;;;;9.60;99.90;;;;;;6703589;88;20059;-79
2024/02/19 19:19:05;;;;;;;;;;;9.40;99.90;;;;;;6710551;88;20232;-80
2024/02/19 19:29:08;;;;;;;;;;;9.20;99.90;;;;;;6704569;88;20084;-77
2024/02/19 19:39:09;;;;;;;;;;;9.10;99.90;;;;;;6698983;88;20063;-77
2024/02/19 19:49:09;;;;;;;;;;;8.80;99.90;;;;;;6703428;88;20861;-78
2024/02/19 19:59:10;;;;;;;;;;;8.70;99.90;;;;;;6701463;88;20071;-78
2024/02/19 20:09:10;;;;;;;;;;;8.80;99.90;;;;;;6708351;88;20169;-79
2024/02/19 20:19:11;;;;;;;;;;;8.80;99.90;;;;;;6706158;88;20068;-78
2024/02/19 20:29:11;;;;;;;;;;;8.90;99.90;;;;;;6710572;88;20049;-79
2024/02/19 20:39:14;;;;;;;;;;;8.70;99.90;;;;;;6717639;88;20094;-79
2024/02/19 20:49:14;;;;;;;;;;;8.40;99.90;;;;;;6717609;88;20499;-79
2024/02/19 20:59:15;;;;;;;;;;;8.20;99.90;;;;;;6715247;88;20077;-80
2024/02/19 21:09:19;;;;;;;;;;;8.30;99.90;;;;;;6718822;88;20237;-79
2024/02/19 21:19:19;;;;;;;;;;;8.40;99.90;;;;;;6718395;88;20067;-79
2024/02/19 21:29:20;;;;;;;;;;;8.40;99.90;;;;;;6713098;88;20100;-79
2024/02/19 21:39:20;;;;;;;;;;;8.40;99.90;;;;;;6717083;88;20080;-79
2024/02/19 21:49:21;;;;;;;;;;;8.40;99.90;;;;;;6715941;88;20063;-79
2024/02/19 21:59:22;;;;;;;;;;;8.30;99.90;;;;;;6721842;88;20541;-78
2024/02/19 22:09:22;;;;;;;;;;;8.20;99.90;;;;;;6713242;88;20112;-78
2024/02/19 22:19:23;;;;;;;;;;;8.10;99.90;;;;;;6707280;88;20078;-79
2024/02/19 22:29:23;;;;;;;;;;;7.90;99.90;;;;;;6715727;88;20098;-79
2024/02/19 22:39:24;;;;;;;;;;;7.80;99.90;;;;;;6714539;88;20121;-79
2024/02/19 22:49:24;;;;;;;;;;;7.60;99.90;;;;;;6715786;88;20509;-79
2024/02/19 22:59:25;;;;;;;;;;;7.50;99.90;;;;;;6715570;88;20080;-78
2024/02/19 23:09:26;;;;;;;;;;;7.50;99.90;;;;;;6709185;88;20574;-79
2024/02/19 23:19:27;;;;;;;;;;;7.60;99.90;;;;;;6717591;88;20510;-78
2024/02/19 23:29:27;;;;;;;;;;;7.60;99.90;;;;;;6717380;88;20058;-78
2024/02/19 23:39:27;;;;;;;;;;;7.50;99.90;;;;;;6715380;88;20079;-78
2024/02/19 23:49:28;;;;;;;;;;;7.50;99.90;;;;;;6718252;88;20227;-78
2024/02/19 23:59:28;;;;;;;;;;;7.40;99.90;;;;;;6715215;88;20058;-78
